createdAt,value
2023-05-22T00:00:23.415Z,98.10
2023-05-22T00:02:57.365Z,98.00
2023-05-22T00:05:25.605Z,98.00
2023-05-22T00:07:55.937Z,97.90
2023-05-22T00:10:42.629Z,98.10
2023-05-22T00:13:14.646Z,98.00
2023-05-22T00:15:43.388Z,98.10
2023-05-22T00:18:14.749Z,98.00
2023-05-22T00:20:54.251Z,98.00
2023-05-22T00:23:27.750Z,98.00
2023-05-22T00:25:58.566Z,98.00
2023-05-22T00:28:28.944Z,98.00
2023-05-22T00:31:05.170Z,98.10
2023-05-22T00:33:36.434Z,98.20
2023-05-22T00:36:10.710Z,98.10
2023-05-22T00:38:38.618Z,98.10
2023-05-22T00:41:12.766Z,98.10
2023-05-22T00:43:51.077Z,98.10
2023-05-22T00:46:21.525Z,98.20
2023-05-22T00:48:53.508Z,98.30
2023-05-22T00:51:22.325Z,98.70
2023-05-22T00:53:54.551Z,98.60
2023-05-22T00:56:22.940Z,98.60
2023-05-22T00:59:04.568Z,98.60
2023-05-22T01:01:41.069Z,98.30
2023-05-22T01:04:14.712Z,98.40
2023-05-22T01:06:42.784Z,98.40
2023-05-22T01:09:14.690Z,98.90
2023-05-22T01:12:00.810Z,98.90
2023-05-22T01:14:40.864Z,98.80
2023-05-22T01:17:23.513Z,98.60
2023-05-22T01:20:07.070Z,98.60
2023-05-22T01:23:08.738Z,98.50
2023-05-22T01:26:04.112Z,98.60
2023-05-22T01:28:57.035Z,98.90
2023-05-22T01:31:28.463Z,99.30
2023-05-22T01:34:03.455Z,99.10
2023-05-22T01:36:35.750Z,99.00
2023-05-22T01:39:07.432Z,98.90
2023-05-22T01:41:44.762Z,98.80
2023-05-22T01:44:12.679Z,98.80
2023-05-22T01:46:42.108Z,98.60
2023-05-22T01:49:12.433Z,98.60
2023-05-22T01:51:51.675Z,98.60
2023-05-22T01:54:28.095Z,98.60
2023-05-22T01:57:09.100Z,98.50
2023-05-22T01:59:45.421Z,98.60
2023-05-22T02:02:16.940Z,98.70
2023-05-22T02:04:59.481Z,98.60
2023-05-22T02:07:28.571Z,98.50
2023-05-22T02:09:57.733Z,98.30
2023-05-22T02:12:28.923Z,98.30
2023-05-22T02:14:59.017Z,98.20
2023-05-22T02:17:28.699Z,98.20
2023-05-22T02:19:56.719Z,98.30
2023-05-22T02:22:33.771Z,98.40
2023-05-22T02:25:04.116Z,98.30
2023-05-22T02:27:32.002Z,98.60
2023-05-22T02:29:59.889Z,98.50
2023-05-22T02:32:29.319Z,98.90
2023-05-22T02:35:10.464Z,98.70
2023-05-22T02:37:38.672Z,98.60
2023-05-22T02:40:07.679Z,98.50
2023-05-22T02:42:35.850Z,98.60
2023-05-22T02:45:04.166Z,98.60
2023-05-22T02:47:33.419Z,98.50
2023-05-22T02:50:03.704Z,98.40
2023-05-22T02:52:31.667Z,98.40
2023-05-22T02:54:59.586Z,98.40
2023-05-22T02:57:27.496Z,98.30
2023-05-22T03:00:11.456Z,98.20
2023-05-22T03:02:40.853Z,98.20
2023-05-22T03:05:09.836Z,98.20
2023-05-22T03:07:41.035Z,98.60
2023-05-22T03:10:16.150Z,98.60
2023-05-22T03:12:44.108Z,99.90
2023-05-22T03:15:12.599Z,99.60
2023-05-22T03:17:50.949Z,99.10
2023-05-22T03:20:18.908Z,98.80
2023-05-22T03:22:47.058Z,98.70
2023-05-22T03:25:15.114Z,98.60
2023-05-22T03:27:46.068Z,98.50
2023-05-22T03:30:25.658Z,98.50
2023-05-22T03:32:57.064Z,98.40
2023-05-22T03:35:25.567Z,98.40
2023-05-22T03:37:59.659Z,98.40
2023-05-22T03:40:30.658Z,98.50
2023-05-22T03:42:58.555Z,98.60
2023-05-22T03:45:32.174Z,98.60
2023-05-22T03:48:07.129Z,98.60
2023-05-22T03:50:35.122Z,98.60
2023-05-22T03:53:06.135Z,98.60
2023-05-22T03:55:36.813Z,98.60
2023-05-22T03:58:12.668Z,98.60
2023-05-22T04:00:42.648Z,98.50
2023-05-22T04:03:14.480Z,98.50
2023-05-22T04:05:42.451Z,98.60
2023-05-22T04:08:10.413Z,98.60
2023-05-22T04:10:38.733Z,98.90
2023-05-22T04:13:13.160Z,98.60
2023-05-22T04:15:43.602Z,98.60
2023-05-22T04:18:18.658Z,98.50
2023-05-22T04:20:46.559Z,98.50
2023-05-22T04:23:14.522Z,98.40
2023-05-22T04:25:48.072Z,98.40
2023-05-22T04:28:17.561Z,98.40
2023-05-22T04:30:45.742Z,98.50
2023-05-22T04:33:13.765Z,98.50
2023-05-22T04:35:44.203Z,98.60
2023-05-22T04:38:12.139Z,98.70
2023-05-22T04:40:43.582Z,98.70
2023-05-22T04:43:12.536Z,98.80
2023-05-22T04:45:42.209Z,98.80
2023-05-22T04:48:13.649Z,98.80
2023-05-22T04:50:46.354Z,98.90
2023-05-22T04:53:14.335Z,98.90
2023-05-22T04:55:46.023Z,98.90
2023-05-22T04:58:13.944Z,99.00
2023-05-22T05:00:42.145Z,99.00
2023-05-22T05:03:11.753Z,99.00
2023-05-22T05:05:39.762Z,99.10
2023-05-22T05:08:09.057Z,99.00
2023-05-22T05:10:37.071Z,98.80
2023-05-22T05:13:10.199Z,98.80
2023-05-22T05:15:38.121Z,98.80
2023-05-22T05:18:06.126Z,98.80
2023-05-22T05:20:37.485Z,98.90
2023-05-22T05:23:05.526Z,98.90
2023-05-22T05:25:38.645Z,98.90
2023-05-22T05:28:10.712Z,98.90
2023-05-22T05:30:42.223Z,98.90
2023-05-22T05:33:19.662Z,99.50
2023-05-22T05:35:57.908Z,99.30
2023-05-22T05:38:28.419Z,99.30
2023-05-22T05:40:57.705Z,99.30
2023-05-22T05:43:25.683Z,99.30
2023-05-22T05:45:57.204Z,99.30
2023-05-22T05:48:28.370Z,99.30
2023-05-22T05:51:07.713Z,99.40
2023-05-22T05:53:36.917Z,99.30
2023-05-22T05:56:09.868Z,99.20
2023-05-22T05:58:38.271Z,99.20
2023-05-22T06:01:09.124Z,99.10
2023-05-22T06:03:39.248Z,99.00
2023-05-22T06:06:10.676Z,99.00
2023-05-22T06:08:38.679Z,98.90
2023-05-22T06:11:06.605Z,98.80
2023-05-22T06:13:35.888Z,98.80
2023-05-22T06:16:06.408Z,98.80
2023-05-22T06:18:34.742Z,98.70
2023-05-22T06:21:05.802Z,98.60
2023-05-22T06:23:34.002Z,98.60
2023-05-22T06:26:02.254Z,98.50
2023-05-22T06:28:30.226Z,98.40
2023-05-22T06:30:59.466Z,98.30
2023-05-22T06:33:27.469Z,98.60
2023-05-22T06:35:55.642Z,99.30
2023-05-22T06:38:29.230Z,99.90
2023-05-22T06:40:57.172Z,99.90
2023-05-22T06:43:25.173Z,99.90
2023-05-22T06:45:55.644Z,99.90
2023-05-22T06:48:25.004Z,99.90
2023-05-22T06:50:52.955Z,99.90
2023-05-22T06:53:20.890Z,99.90
2023-05-22T06:55:51.345Z,99.90
2023-05-22T06:58:22.029Z,99.90
2023-05-22T07:00:52.135Z,99.90
2023-05-22T07:03:20.232Z,99.90
2023-05-22T07:05:49.689Z,99.90
2023-05-22T07:08:19.781Z,99.90
2023-05-22T07:10:47.693Z,99.90
2023-05-22T07:13:18.520Z,99.90
2023-05-22T07:15:46.610Z,99.90
2023-05-22T07:18:15.191Z,99.90
2023-05-22T07:20:43.175Z,99.90
2023-05-22T07:23:12.442Z,99.90
2023-05-22T07:25:44.030Z,99.90
2023-05-22T07:28:14.789Z,99.90
2023-05-22T07:30:42.725Z,99.90
2023-05-22T07:33:11.632Z,99.90
2023-05-22T07:35:39.637Z,99.90
2023-05-22T07:38:07.582Z,99.90
2023-05-22T07:40:45.968Z,99.90
2023-05-22T07:43:15.261Z,99.90
2023-05-22T07:45:44.095Z,99.90
2023-05-22T07:48:12.159Z,99.90
2023-05-22T07:50:44.716Z,99.90
2023-05-22T07:53:12.998Z,99.90
2023-05-22T07:55:41.044Z,99.90
2023-05-22T07:58:10.862Z,99.90
2023-05-22T08:00:41.769Z,99.90
2023-05-22T08:03:09.800Z,99.90
2023-05-22T08:05:37.861Z,99.90
2023-05-22T08:08:06.015Z,99.90
2023-05-22T08:10:52.107Z,99.90
2023-05-22T08:13:27.091Z,99.90
2023-05-22T08:16:00.682Z,99.90
2023-05-22T08:18:29.935Z,99.90
2023-05-22T08:20:59.661Z,99.90
2023-05-22T08:23:27.700Z,99.90
2023-05-22T08:26:04.945Z,99.90
2023-05-22T08:28:36.654Z,99.90
2023-05-22T08:31:04.643Z,99.90
2023-05-22T08:33:32.627Z,99.90
2023-05-22T08:36:00.554Z,99.90
2023-05-22T08:38:28.432Z,99.90
2023-05-22T08:41:07.742Z,99.90
2023-05-22T08:43:37.183Z,99.90
2023-05-22T08:46:08.694Z,99.90
2023-05-22T08:48:41.965Z,99.90
2023-05-22T08:51:14.309Z,99.90
2023-05-22T08:53:52.639Z,99.90
2023-05-22T08:56:21.131Z,99.90
2023-05-22T08:58:51.880Z,99.90
2023-05-22T09:01:29.722Z,99.90
2023-05-22T09:04:01.746Z,99.90
2023-05-22T09:06:30.447Z,99.90
2023-05-22T09:08:58.669Z,99.90
2023-05-22T09:11:26.958Z,99.90
2023-05-22T09:14:08.711Z,99.90
2023-05-22T09:16:45.996Z,99.90
2023-05-22T09:19:14.620Z,99.90
2023-05-22T09:21:55.385Z,99.90
2023-05-22T09:24:39.107Z,99.90
2023-05-22T09:27:08.186Z,99.90
2023-05-22T09:29:49.654Z,99.90
2023-05-22T09:32:20.846Z,99.90
2023-05-22T09:34:48.889Z,99.90
2023-05-22T09:37:17.404Z,99.90
2023-05-22T09:39:46.852Z,99.90
2023-05-22T09:42:17.645Z,99.90
2023-05-22T09:44:51.100Z,99.90
2023-05-22T09:47:22.402Z,99.90
2023-05-22T09:49:50.465Z,99.90
2023-05-22T09:52:20.033Z,99.90
2023-05-22T09:54:58.716Z,99.90
2023-05-22T09:57:27.581Z,99.90
2023-05-22T09:59:58.435Z,99.90
2023-05-22T10:02:33.571Z,99.90
2023-05-22T10:05:03.228Z,99.90
2023-05-22T10:07:36.737Z,99.90
2023-05-22T10:10:12.350Z,99.90
2023-05-22T10:12:48.071Z,99.90
2023-05-22T10:15:20.583Z,99.90
2023-05-22T10:17:49.463Z,99.90
2023-05-22T10:20:17.904Z,99.90
2023-05-22T10:22:48.861Z,99.90
2023-05-22T10:25:19.045Z,99.90
2023-05-22T10:27:47.299Z,99.90
2023-05-22T10:30:24.384Z,99.90
2023-05-22T10:32:58.510Z,99.90
2023-05-22T10:35:49.174Z,99.90
2023-05-22T10:38:44.815Z,99.90
2023-05-22T10:41:16.160Z,99.90
2023-05-22T10:43:44.572Z,99.90
2023-05-22T10:46:14.542Z,99.90
2023-05-22T10:48:46.340Z,99.90
2023-05-22T10:51:19.087Z,99.90
2023-05-22T10:53:54.109Z,99.90
2023-05-22T10:56:25.151Z,99.90
2023-05-22T10:58:59.100Z,99.90
2023-05-22T11:01:28.790Z,99.90
2023-05-22T11:03:58.387Z,99.90
2023-05-22T11:06:34.123Z,99.90
2023-05-22T11:09:35.565Z,99.90
2023-05-22T11:12:25.751Z,99.90
2023-05-22T11:14:57.746Z,99.90
2023-05-22T11:17:31.434Z,99.90
2023-05-22T11:20:05.141Z,99.90
2023-05-22T11:22:38.305Z,99.90
2023-05-22T11:25:09.361Z,99.90
2023-05-22T11:27:43.178Z,99.90
2023-05-22T11:30:11.995Z,99.90
2023-05-22T11:32:44.363Z,99.90
2023-05-22T11:35:17.062Z,99.90
2023-05-22T11:37:45.346Z,99.90
2023-05-22T11:40:17.871Z,99.90
2023-05-22T11:42:49.357Z,99.90
2023-05-22T11:45:18.638Z,99.60
2023-05-22T11:48:02.843Z,99.90
2023-05-22T11:50:41.566Z,99.90
2023-05-22T11:53:16.285Z,99.90
2023-05-22T11:55:44.388Z,99.90
2023-05-22T11:58:12.340Z,99.90
2023-05-22T12:00:46.310Z,99.90
2023-05-22T12:03:17.603Z,99.80
2023-05-22T12:05:47.586Z,99.90
2023-05-22T12:08:15.611Z,99.90
2023-05-22T12:10:48.807Z,98.90
2023-05-22T12:13:22.340Z,99.90
2023-05-22T12:15:55.925Z,99.90
2023-05-22T12:18:25.425Z,99.90
2023-05-22T12:20:55.308Z,99.90
2023-05-22T12:23:24.524Z,99.70
2023-05-22T12:26:02.147Z,99.80
2023-05-22T12:28:32.739Z,99.40
2023-05-22T12:31:00.939Z,98.40
2023-05-22T12:33:30.915Z,98.70
2023-05-22T12:35:59.356Z,99.70
2023-05-22T12:38:28.142Z,99.40
2023-05-22T12:40:56.518Z,99.10
2023-05-22T12:43:26.329Z,99.30
2023-05-22T12:45:55.188Z,99.30
2023-05-22T12:48:23.192Z,99.50
2023-05-22T12:50:52.794Z,99.70
2023-05-22T12:53:20.778Z,99.80
2023-05-22T12:55:52.320Z,99.30
2023-05-22T12:58:20.216Z,99.30
2023-05-22T13:00:48.188Z,99.30
2023-05-22T13:03:19.378Z,99.00
2023-05-22T13:05:50.318Z,98.80
2023-05-22T13:08:20.261Z,98.60
2023-05-22T13:10:51.036Z,98.60
2023-05-22T13:13:19.069Z,98.70
2023-05-22T13:15:47.009Z,98.40
2023-05-22T13:18:15.017Z,98.20
2023-05-22T13:20:45.942Z,98.50
2023-05-22T13:23:13.851Z,98.50
2023-05-22T13:25:45.988Z,98.00
2023-05-22T13:28:13.909Z,98.00
2023-05-22T13:30:45.833Z,98.00
2023-05-22T13:33:13.898Z,98.50
2023-05-22T13:35:44.781Z,98.30
2023-05-22T13:38:15.761Z,97.40
2023-05-22T13:40:46.914Z,97.90
2023-05-22T13:43:16.528Z,97.50
2023-05-22T13:45:44.465Z,97.50
2023-05-22T13:48:12.839Z,97.50
2023-05-22T13:50:40.776Z,97.40
2023-05-22T13:53:08.753Z,97.20
2023-05-22T13:55:37.413Z,97.20
2023-05-22T13:58:06.872Z,96.80
2023-05-22T14:00:34.825Z,97.30
2023-05-22T14:03:05.408Z,97.10
2023-05-22T14:05:33.466Z,97.20
2023-05-22T14:08:01.630Z,97.40
2023-05-22T14:10:29.552Z,97.20
2023-05-22T14:12:57.485Z,97.20
2023-05-22T14:15:26.811Z,97.20
2023-05-22T14:17:54.753Z,97.30
2023-05-22T14:20:22.717Z,97.30
2023-05-22T14:22:57.628Z,97.40
2023-05-22T14:25:26.856Z,96.90
2023-05-22T14:27:54.771Z,97.30
2023-05-22T14:30:22.753Z,97.00
2023-05-22T14:32:52.146Z,96.70
2023-05-22T14:35:23.068Z,96.90
2023-05-22T14:37:56.575Z,96.00
2023-05-22T14:40:27.529Z,96.10
2023-05-22T14:42:55.402Z,94.40
2023-05-22T14:45:23.516Z,95.80
2023-05-22T14:47:52.924Z,95.90
2023-05-22T14:50:22.203Z,94.60
2023-05-22T14:52:50.301Z,94.30
2023-05-22T14:55:18.729Z,94.50
2023-05-22T14:57:46.649Z,95.40
2023-05-22T15:00:15.900Z,95.60
2023-05-22T15:02:43.867Z,95.40
2023-05-22T15:05:13.433Z,95.10
2023-05-22T15:07:44.703Z,95.20
2023-05-22T15:10:16.650Z,95.10
2023-05-22T15:12:47.553Z,94.50
2023-05-22T15:15:15.514Z,94.60
2023-05-22T15:17:43.486Z,94.70
2023-05-22T15:20:13.686Z,94.70
2023-05-22T15:22:41.766Z,94.30
2023-05-22T15:25:15.158Z,93.60
2023-05-22T15:27:43.736Z,94.50
2023-05-22T15:30:12.152Z,94.30
2023-05-22T15:32:40.353Z,94.20
2023-05-22T15:35:09.716Z,93.90
2023-05-22T15:37:39.157Z,93.80
2023-05-22T15:40:09.593Z,93.80
2023-05-22T15:42:37.747Z,95.00
2023-05-22T15:45:06.467Z,94.40
2023-05-22T15:47:34.421Z,96.20
2023-05-22T15:50:02.319Z,95.80
2023-05-22T15:52:30.235Z,95.80
2023-05-22T15:54:59.525Z,95.80
2023-05-22T15:57:28.052Z,95.60
2023-05-22T15:59:56.238Z,95.50
2023-05-22T16:02:24.165Z,95.50
2023-05-22T16:04:52.135Z,94.60
2023-05-22T16:07:20.063Z,95.10
2023-05-22T16:09:50.368Z,95.30
2023-05-22T16:12:19.869Z,95.20
2023-05-22T16:14:47.931Z,95.10
2023-05-22T16:17:18.987Z,95.00
2023-05-22T16:19:51.094Z,94.90
2023-05-22T16:22:30.368Z,93.90
2023-05-22T16:25:04.824Z,94.30
2023-05-22T16:27:34.169Z,94.50
2023-05-22T16:30:02.633Z,94.40
2023-05-22T16:32:30.701Z,94.20
2023-05-22T16:34:58.618Z,94.10
2023-05-22T16:37:26.592Z,94.00
2023-05-22T16:39:54.511Z,94.00
2023-05-22T16:42:22.427Z,93.80
2023-05-22T16:44:51.699Z,93.90
2023-05-22T16:47:19.634Z,93.80
2023-05-22T16:49:53.058Z,93.90
2023-05-22T16:52:23.350Z,94.00
2023-05-22T16:54:54.611Z,93.90
2023-05-22T16:57:22.559Z,93.40
2023-05-22T16:59:52.478Z,93.00
2023-05-22T17:02:23.178Z,93.00
2023-05-22T17:04:56.388Z,91.50
2023-05-22T17:07:24.530Z,92.50
2023-05-22T17:09:52.379Z,94.00
2023-05-22T17:12:20.299Z,94.90
2023-05-22T17:14:48.166Z,94.70
2023-05-22T17:17:17.384Z,95.40
2023-05-22T17:19:45.260Z,96.10
2023-05-22T17:22:16.193Z,96.70
2023-05-22T17:24:44.976Z,96.40
2023-05-22T17:27:31.988Z,96.10
2023-05-22T17:30:07.650Z,96.20
2023-05-22T17:32:39.397Z,95.80
2023-05-22T17:35:07.778Z,95.60
2023-05-22T17:37:35.726Z,95.30
2023-05-22T17:40:04.720Z,95.00
2023-05-22T17:42:32.714Z,94.90
2023-05-22T17:45:02.898Z,94.80
2023-05-22T17:47:30.898Z,94.60
2023-05-22T17:50:00.217Z,94.50
2023-05-22T17:52:28.199Z,94.30
2023-05-22T17:54:59.013Z,94.00
2023-05-22T17:57:33.437Z,94.10
2023-05-22T18:00:09.528Z,94.20
2023-05-22T18:02:44.182Z,94.10
2023-05-22T18:05:13.693Z,94.10
2023-05-22T18:07:44.774Z,94.00
2023-05-22T18:10:13.140Z,94.00
2023-05-22T18:12:41.223Z,93.90
2023-05-22T18:15:11.952Z,93.90
2023-05-22T18:17:39.917Z,93.80
2023-05-22T18:20:09.142Z,93.90
2023-05-22T18:22:39.813Z,94.00
2023-05-22T18:25:11.259Z,93.90
2023-05-22T18:27:45.529Z,94.00
2023-05-22T18:30:14.331Z,94.00
2023-05-22T18:32:42.305Z,93.90
2023-05-22T18:35:10.921Z,94.00
2023-05-22T18:37:43.048Z,94.00
2023-05-22T18:40:11.977Z,94.10
2023-05-22T18:42:40.134Z,94.10
2023-05-22T18:45:12.290Z,94.10
2023-05-22T18:47:43.145Z,94.10
2023-05-22T18:50:13.932Z,94.20
2023-05-22T18:52:46.305Z,94.10
2023-05-22T18:55:14.220Z,94.10
2023-05-22T18:57:42.141Z,94.00
2023-05-22T19:00:11.218Z,94.00
2023-05-22T19:02:39.170Z,94.00
2023-05-22T19:05:07.976Z,94.00
2023-05-22T19:07:39.008Z,93.90
2023-05-22T19:10:09.647Z,93.90
2023-05-22T19:12:37.625Z,93.90
2023-05-22T19:15:06.916Z,93.90
2023-05-22T19:17:35.692Z,93.90
2023-05-22T19:20:08.712Z,93.90
2023-05-22T19:22:39.639Z,93.90
2023-05-22T19:25:21.037Z,93.80
2023-05-22T19:27:49.146Z,93.80
2023-05-22T19:30:18.918Z,93.80
2023-05-22T19:32:49.579Z,93.70
2023-05-22T19:35:17.594Z,93.70
2023-05-22T19:37:46.008Z,93.70
2023-05-22T19:40:13.949Z,93.70
2023-05-22T19:42:43.254Z,93.70
2023-05-22T19:45:13.930Z,93.70
2023-05-22T19:47:47.755Z,93.70
2023-05-22T19:50:15.726Z,93.70
2023-05-22T19:52:52.487Z,93.60
2023-05-22T19:55:23.558Z,93.50
2023-05-22T19:57:53.165Z,93.50
2023-05-22T20:00:49.155Z,93.40
2023-05-22T20:03:17.207Z,93.30
2023-05-22T20:05:45.200Z,93.40
2023-05-22T20:08:14.117Z,93.30
2023-05-22T20:10:42.250Z,93.40
2023-05-22T20:13:14.870Z,93.40
2023-05-22T20:16:12.545Z,93.50
2023-05-22T20:18:41.111Z,93.50
2023-05-22T20:21:18.513Z,93.30
2023-05-22T20:23:55.409Z,93.40
2023-05-22T20:26:31.732Z,93.40
2023-05-22T20:29:01.329Z,93.30
2023-05-22T20:31:31.965Z,93.40
2023-05-22T20:34:01.920Z,93.30
2023-05-22T20:36:33.458Z,93.30
2023-05-22T20:39:11.777Z,93.30
2023-05-22T20:41:50.630Z,93.30
2023-05-22T20:44:23.532Z,93.30
2023-05-22T20:46:57.852Z,93.50
2023-05-22T20:49:29.823Z,93.50
2023-05-22T20:52:24.793Z,93.50
2023-05-22T20:54:52.755Z,93.40
2023-05-22T20:57:22.767Z,93.20
2023-05-22T21:00:01.339Z,93.40
2023-05-22T21:02:29.316Z,93.10
2023-05-22T21:05:10.411Z,93.20
2023-05-22T21:07:38.357Z,93.10
2023-05-22T21:10:07.198Z,92.80
2023-05-22T21:12:35.172Z,93.20
2023-05-22T21:15:08.686Z,93.10
2023-05-22T21:17:40.410Z,92.90
2023-05-22T21:20:09.058Z,92.90
2023-05-22T21:22:40.126Z,92.80
2023-05-22T21:25:23.427Z,92.80
2023-05-22T21:28:15.901Z,92.70
2023-05-22T21:30:45.217Z,92.70
2023-05-22T21:33:23.108Z,92.60
2023-05-22T21:35:51.020Z,92.50
2023-05-22T21:38:24.199Z,92.50
2023-05-22T21:40:52.166Z,92.40
2023-05-22T21:43:25.985Z,92.40
2023-05-22T21:46:01.246Z,92.30
2023-05-22T21:48:29.324Z,92.40
2023-05-22T21:50:57.257Z,92.40
2023-05-22T21:53:25.176Z,92.40
2023-05-22T21:55:53.180Z,92.40
2023-05-22T21:58:24.153Z,92.30
2023-05-22T22:00:55.068Z,92.30
2023-05-22T22:03:24.379Z,92.20
2023-05-22T22:05:52.333Z,92.30
2023-05-22T22:08:20.307Z,92.20
2023-05-22T22:10:48.249Z,92.00
2023-05-22T22:13:22.361Z,92.10
2023-05-22T22:15:50.654Z,92.00
2023-05-22T22:18:24.101Z,91.90
2023-05-22T22:21:02.317Z,92.10
2023-05-22T22:23:36.165Z,92.10
2023-05-22T22:26:07.206Z,92.00
2023-05-22T22:28:35.524Z,92.00
2023-05-22T22:31:08.692Z,92.00
2023-05-22T22:33:39.428Z,92.10
2023-05-22T22:36:11.609Z,92.10
2023-05-22T22:38:45.626Z,91.90
2023-05-22T22:41:27.336Z,92.00
2023-05-22T22:43:55.263Z,91.80
2023-05-22T22:46:29.097Z,92.00
2023-05-22T22:49:12.228Z,92.10
2023-05-22T22:51:49.277Z,92.00
2023-05-22T22:54:27.212Z,91.90
2023-05-22T22:56:55.346Z,92.00
2023-05-22T22:59:23.424Z,91.90
2023-05-22T23:01:54.125Z,92.00
2023-05-22T23:04:22.250Z,92.10
2023-05-22T23:06:51.526Z,91.70
2023-05-22T23:09:20.141Z,91.60
2023-05-22T23:11:48.109Z,91.80
2023-05-22T23:14:16.549Z,92.10
2023-05-22T23:16:44.504Z,92.20
2023-05-22T23:19:13.773Z,92.10
2023-05-22T23:21:46.471Z,91.70
2023-05-22T23:24:15.790Z,92.10
2023-05-22T23:26:43.697Z,92.10
2023-05-22T23:29:11.570Z,91.50
2023-05-22T23:31:40.407Z,92.10
2023-05-22T23:34:11.306Z,92.60
2023-05-22T23:36:39.261Z,92.20
2023-05-22T23:39:07.229Z,92.00
2023-05-22T23:41:39.604Z,92.40
2023-05-22T23:44:11.933Z,92.50
2023-05-22T23:46:43.858Z,92.50
2023-05-22T23:49:11.831Z,92.30
2023-05-22T23:51:48.522Z,92.30
2023-05-22T23:54:16.811Z,92.10
2023-05-22T23:56:46.274Z,92.00
2023-05-22T23:59:16.991Z,92.40
